Terminal Aerodrome Forecast
Issued by NWS Twin Cities, MN

Home | Current Version | Previous Version | Text Only | Print | Product List | Glossary Off
Versions: 1 2 3 4 5 6 7 8 9 10 11 12 13 14 15 16 17 18 19 20 21 22 23 24 25 26 27

000
FTUS43 KMPX 171400 CCA
TAFMSP
TAF COR
KMSP 171439Z 1715/1818 30007KT P6SM SCT020
      TEMPO 1715/1718 6SM -SN BKN020
     FM172000 33004KT P6SM SCT020 BKN100
     FM180300 VRB03KT P6SM SCT250=

USA.gov is the U.S. government's official web portal to all federal, state and local government web resources and services.